createdAt,value
2023-04-30T00:00:38.846Z,86.37
2023-04-30T00:03:32.129Z,86.43
2023-04-30T00:06:21.193Z,86.51
2023-04-30T00:09:10.355Z,86.69
2023-04-30T00:11:59.557Z,86.79
2023-04-30T00:14:49.410Z,86.71
2023-04-30T00:17:38.822Z,86.96
2023-04-30T00:20:27.765Z,86.96
2023-04-30T00:30:30.871Z,87.26
2023-04-30T00:33:20.010Z,87.53
2023-04-30T00:36:25.465Z,87.48
2023-04-30T00:39:14.483Z,87.53
2023-04-30T00:42:03.455Z,87.55
2023-04-30T00:44:52.331Z,87.92
2023-04-30T00:47:41.566Z,87.90
2023-04-30T00:50:30.726Z,88.29
2023-04-30T00:53:20.433Z,88.27
2023-04-30T00:56:10.740Z,88.50
2023-04-30T00:59:00.068Z,88.48
2023-04-30T01:06:11.504Z,88.91
2023-04-30T01:09:01.208Z,88.78
2023-04-30T01:12:05.923Z,88.38
2023-04-30T01:15:19.875Z,88.48
2023-04-30T01:18:34.148Z,88.62
2023-04-30T01:21:24.468Z,88.59
2023-04-30T01:24:41.498Z,88.62
2023-04-30T01:28:01.877Z,88.71
2023-04-30T01:30:51.208Z,88.54
2023-04-30T01:33:40.612Z,88.62
2023-04-30T01:36:44.995Z,88.69
2023-04-30T01:39:51.672Z,88.81
2023-04-30T01:42:57.188Z,88.93
2023-04-30T01:46:00.678Z,88.82
2023-04-30T01:49:07.407Z,88.98
2023-04-30T01:52:05.047Z,88.88
2023-04-30T01:55:08.141Z,88.58
2023-04-30T01:58:01.471Z,88.43
2023-04-30T02:00:50.865Z,88.90
2023-04-30T02:03:39.703Z,88.86
2023-04-30T02:06:29.939Z,88.59
2023-04-30T02:09:18.765Z,88.67
2023-04-30T02:12:08.132Z,88.52
2023-04-30T02:14:56.810Z,88.22
2023-04-30T02:17:46.199Z,88.39
2023-04-30T02:20:35.002Z,88.29
2023-04-30T02:23:23.863Z,88.21
2023-04-30T02:26:12.675Z,87.41
2023-04-30T02:29:01.721Z,86.74
2023-04-30T02:31:50.599Z,86.45
2023-04-30T02:34:39.315Z,86.33
2023-04-30T02:37:28.046Z,86.23
2023-04-30T02:40:17.031Z,86.29
2023-04-30T02:43:06.558Z,86.37
2023-04-30T02:45:55.607Z,86.49
2023-04-30T02:48:44.431Z,86.64
2023-04-30T02:51:33.173Z,86.38
2023-04-30T02:54:22.175Z,86.28
2023-04-30T02:57:11.381Z,86.48
2023-04-30T03:00:01.110Z,86.27
2023-04-30T03:02:50.168Z,86.17
2023-04-30T03:05:39.508Z,86.00
2023-04-30T03:08:28.421Z,86.42
2023-04-30T03:11:17.189Z,86.33
2023-04-30T03:14:06.134Z,86.28
2023-04-30T03:16:54.735Z,86.13
2023-04-30T03:19:44.098Z,86.16
2023-04-30T03:22:33.883Z,86.05
2023-04-30T03:25:22.951Z,86.25
2023-04-30T03:28:11.533Z,86.37
2023-04-30T03:31:01.082Z,86.14
2023-04-30T03:33:49.749Z,86.04
2023-04-30T03:36:38.687Z,86.00
2023-04-30T03:39:28.053Z,85.91
2023-04-30T03:42:16.842Z,85.79
2023-04-30T03:46:49.515Z,85.67
2023-04-30T03:49:39.220Z,85.21
2023-04-30T03:52:28.535Z,85.34
2023-04-30T03:55:17.659Z,85.23
2023-04-30T03:58:06.502Z,84.95
2023-04-30T04:00:55.905Z,85.11
2023-04-30T04:03:44.608Z,85.23
2023-04-30T04:06:33.835Z,84.70
2023-04-30T04:09:22.939Z,84.21
2023-04-30T04:12:12.435Z,84.17
2023-04-30T04:15:01.432Z,84.01
2023-04-30T04:17:51.720Z,83.95
2023-04-30T04:20:40.769Z,84.07
2023-04-30T04:23:30.650Z,84.11
2023-04-30T04:26:21.582Z,82.36
2023-04-30T04:29:12.501Z,81.41
2023-04-30T04:32:02.887Z,82.35
2023-04-30T04:34:54.503Z,81.00
2023-04-30T04:37:43.038Z,79.89
2023-04-30T04:40:32.341Z,77.66
2023-04-30T04:43:21.099Z,77.45
2023-04-30T04:46:12.992Z,75.71
2023-04-30T04:49:02.867Z,75.79
2023-04-30T04:51:52.491Z,75.37
2023-04-30T04:54:41.410Z,75.98
2023-04-30T04:57:30.673Z,75.49
2023-04-30T05:00:19.386Z,75.16
2023-04-30T05:03:10.327Z,75.53
2023-04-30T05:05:59.701Z,75.99
2023-04-30T05:08:48.871Z,76.72
2023-04-30T05:11:38.609Z,75.86
2023-04-30T05:14:27.779Z,75.48
2023-04-30T05:17:16.400Z,75.71
2023-04-30T05:20:07.571Z,75.58
2023-04-30T05:22:56.217Z,75.24
2023-04-30T05:25:45.640Z,75.12
2023-04-30T05:28:34.207Z,75.54
2023-04-30T05:31:23.623Z,75.25
2023-04-30T05:34:12.272Z,74.77
2023-04-30T05:37:01.924Z,74.95
2023-04-30T05:39:50.561Z,74.53
2023-04-30T05:42:41.299Z,75.31
2023-04-30T05:45:29.907Z,74.95
2023-04-30T05:48:18.986Z,75.05
2023-04-30T05:51:07.548Z,74.40
2023-04-30T05:53:57.807Z,74.35
2023-04-30T05:56:46.589Z,74.69
2023-04-30T05:59:38.364Z,74.27
2023-04-30T06:02:26.957Z,73.33
2023-04-30T06:05:16.406Z,72.58
2023-04-30T06:08:05.222Z,72.87
2023-04-30T06:10:53.933Z,73.19
2023-04-30T06:13:42.671Z,73.04
2023-04-30T06:16:31.815Z,72.87
2023-04-30T06:19:20.998Z,71.85
2023-04-30T06:22:09.917Z,71.97
2023-04-30T06:24:58.555Z,71.93
2023-04-30T06:27:47.776Z,72.06
2023-04-30T06:30:37.094Z,71.84
2023-04-30T06:33:26.266Z,70.85
2023-04-30T06:36:14.834Z,71.16
2023-04-30T06:39:05.382Z,70.97
2023-04-30T06:41:54.066Z,70.59
2023-04-30T06:44:46.342Z,70.63
2023-04-30T06:47:38.129Z,70.10
2023-04-30T06:50:27.308Z,70.34
2023-04-30T06:53:16.022Z,70.15
2023-04-30T06:56:05.366Z,67.60
2023-04-30T06:58:54.025Z,68.30
2023-04-30T07:01:43.206Z,68.44
2023-04-30T07:04:31.992Z,69.06
2023-04-30T07:07:21.075Z,68.81
2023-04-30T07:10:09.922Z,68.21
2023-04-30T07:12:59.681Z,66.85
2023-04-30T07:15:48.179Z,65.28
2023-04-30T07:18:38.209Z,67.34
2023-04-30T07:21:27.957Z,66.56
2023-04-30T07:24:17.113Z,65.38
2023-04-30T07:27:07.406Z,66.26
2023-04-30T07:29:59.407Z,66.48
2023-04-30T07:32:48.580Z,65.06
2023-04-30T07:35:37.587Z,64.42
2023-04-30T07:38:26.348Z,65.68
2023-04-30T07:41:15.227Z,66.38
2023-04-30T07:44:04.768Z,65.73
2023-04-30T07:46:54.067Z,65.81
2023-04-30T07:49:42.653Z,64.36
2023-04-30T07:52:32.583Z,64.80
2023-04-30T07:55:21.327Z,64.82
2023-04-30T07:58:10.324Z,63.41
2023-04-30T08:00:58.828Z,61.60
2023-04-30T08:03:47.851Z,61.82
2023-04-30T08:06:36.621Z,61.86
2023-04-30T08:09:25.496Z,61.80
2023-04-30T08:12:14.217Z,60.87
2023-04-30T08:15:05.258Z,62.45
2023-04-30T08:17:53.910Z,62.58
2023-04-30T08:20:43.027Z,62.40
2023-04-30T08:23:31.675Z,61.78
2023-04-30T08:26:21.389Z,62.48
2023-04-30T08:29:09.984Z,62.37
2023-04-30T08:32:04.418Z,61.84
2023-04-30T08:34:54.412Z,61.31
2023-04-30T08:37:43.551Z,61.86
2023-04-30T08:40:50.267Z,61.65
2023-04-30T08:43:41.450Z,60.49
2023-04-30T08:46:35.563Z,60.38
2023-04-30T08:49:25.569Z,60.26
2023-04-30T08:52:15.350Z,59.72
2023-04-30T08:55:08.253Z,59.69
2023-04-30T08:57:56.901Z,59.27
2023-04-30T09:00:46.299Z,59.14
2023-04-30T09:03:35.007Z,60.18
2023-04-30T09:06:24.526Z,59.99
2023-04-30T09:09:15.202Z,59.00
2023-04-30T09:12:20.524Z,59.04
2023-04-30T09:15:09.671Z,58.84
2023-04-30T09:18:18.834Z,59.13
2023-04-30T09:21:10.452Z,59.04
2023-04-30T09:24:01.982Z,59.15
2023-04-30T09:26:51.594Z,60.20
2023-04-30T09:29:41.179Z,59.04
2023-04-30T09:32:32.113Z,60.08
2023-04-30T09:35:32.756Z,59.18
2023-04-30T09:38:26.264Z,58.70
2023-04-30T09:41:28.859Z,58.28
2023-04-30T09:44:29.204Z,58.49
2023-04-30T09:47:19.788Z,57.11
2023-04-30T09:50:08.830Z,53.22
2023-04-30T09:53:09.803Z,55.09
2023-04-30T09:55:59.116Z,55.87
2023-04-30T09:58:51.553Z,56.62
2023-04-30T10:01:41.254Z,56.57
2023-04-30T10:04:38.860Z,56.48
2023-04-30T10:07:34.398Z,57.48
2023-04-30T10:10:26.096Z,57.91
2023-04-30T10:13:19.881Z,56.18
2023-04-30T10:16:18.815Z,52.94
2023-04-30T10:19:12.591Z,52.96
2023-04-30T10:22:02.352Z,52.10
2023-04-30T10:24:51.097Z,52.93
2023-04-30T10:27:39.965Z,54.01
2023-04-30T10:30:31.727Z,54.72
2023-04-30T10:33:32.920Z,52.89
2023-04-30T10:36:42.550Z,52.24
2023-04-30T10:39:33.001Z,53.49
2023-04-30T10:42:21.600Z,53.90
2023-04-30T10:45:10.915Z,52.98
2023-04-30T10:48:03.717Z,54.47
2023-04-30T10:50:57.853Z,54.20
2023-04-30T10:53:52.408Z,53.81
2023-04-30T10:56:44.880Z,52.26
2023-04-30T10:59:35.036Z,52.81
2023-04-30T11:02:25.488Z,54.89
2023-04-30T11:05:15.916Z,53.52
2023-04-30T11:08:06.433Z,51.99
2023-04-30T11:11:03.750Z,53.00
2023-04-30T11:14:01.984Z,53.80
2023-04-30T11:16:53.684Z,51.44
2023-04-30T11:19:53.734Z,52.38
2023-04-30T11:22:42.549Z,52.70
2023-04-30T11:25:40.350Z,52.50
2023-04-30T11:28:31.006Z,52.72
2023-04-30T11:31:20.561Z,52.91
2023-04-30T11:34:09.258Z,52.71
2023-04-30T11:36:59.574Z,52.25
2023-04-30T11:39:50.257Z,49.82
2023-04-30T11:42:45.440Z,51.71
2023-04-30T11:45:34.831Z,53.15
2023-04-30T11:48:23.912Z,52.65
2023-04-30T11:51:21.807Z,50.64
2023-04-30T11:54:14.514Z,51.62
2023-04-30T11:57:07.819Z,51.40
2023-04-30T11:59:57.020Z,51.13
2023-04-30T12:02:49.012Z,49.94
2023-04-30T12:05:41.313Z,50.39
2023-04-30T12:08:30.073Z,49.44
2023-04-30T12:11:25.506Z,49.47
2023-04-30T12:14:15.291Z,47.96
2023-04-30T12:17:04.310Z,48.23
2023-04-30T12:19:53.206Z,46.88
2023-04-30T12:22:44.241Z,46.76
2023-04-30T12:25:41.280Z,47.68
2023-04-30T12:28:31.257Z,47.96
2023-04-30T12:31:20.236Z,46.80
2023-04-30T12:34:14.134Z,46.82
2023-04-30T12:37:02.733Z,44.85
2023-04-30T12:39:51.627Z,46.50
2023-04-30T12:42:43.671Z,46.80
2023-04-30T12:45:52.039Z,45.17
2023-04-30T12:48:47.643Z,46.51
2023-04-30T12:51:36.806Z,43.68
2023-04-30T12:54:33.476Z,45.22
2023-04-30T12:57:22.674Z,46.21
2023-04-30T13:00:11.626Z,45.53
2023-04-30T13:03:00.835Z,44.07
2023-04-30T13:05:52.834Z,43.82
2023-04-30T13:08:50.307Z,42.66
2023-04-30T13:11:47.290Z,43.18
2023-04-30T13:14:36.818Z,44.85
2023-04-30T13:17:26.437Z,44.58
2023-04-30T13:20:18.684Z,42.96
2023-04-30T13:23:07.489Z,43.15
2023-04-30T13:25:56.676Z,44.51
2023-04-30T13:28:45.372Z,44.30
2023-04-30T13:31:34.148Z,45.67
2023-04-30T13:34:22.887Z,42.86
2023-04-30T13:37:12.414Z,41.98
2023-04-30T13:40:01.686Z,43.28
2023-04-30T13:42:53.388Z,44.23
2023-04-30T13:45:41.877Z,43.75
2023-04-30T13:48:33.396Z,43.53
2023-04-30T13:51:22.156Z,42.75
2023-04-30T13:54:11.040Z,42.10
2023-04-30T13:56:59.957Z,41.88
2023-04-30T13:59:49.318Z,43.84
2023-04-30T14:02:38.154Z,43.70
2023-04-30T14:05:28.079Z,43.39
2023-04-30T14:08:16.941Z,44.43
2023-04-30T14:11:05.768Z,42.99
2023-04-30T14:13:55.382Z,43.36
2023-04-30T14:16:45.096Z,43.38
2023-04-30T14:19:33.940Z,43.66
2023-04-30T14:22:24.547Z,42.21
2023-04-30T14:25:13.544Z,42.77
2023-04-30T14:28:04.575Z,42.77
2023-04-30T14:30:53.192Z,42.10
2023-04-30T14:33:42.001Z,42.20
2023-04-30T14:36:31.530Z,42.55
2023-04-30T14:39:20.720Z,43.35
2023-04-30T14:42:09.673Z,43.65
2023-04-30T14:44:58.457Z,42.43
2023-04-30T14:47:47.149Z,41.91
2023-04-30T14:59:49.555Z,42.95
2023-04-30T15:02:38.573Z,43.36
2023-04-30T15:05:28.867Z,43.94
2023-04-30T15:08:17.511Z,43.86
2023-04-30T15:17:18.072Z,43.19
2023-04-30T15:20:07.712Z,44.10
2023-04-30T15:22:56.679Z,43.47
2023-04-30T15:25:45.543Z,43.12
2023-04-30T15:28:34.727Z,43.10
2023-04-30T15:31:24.253Z,43.66
2023-04-30T15:34:13.295Z,43.15
2023-04-30T15:37:02.439Z,43.40
2023-04-30T15:39:51.639Z,43.07
2023-04-30T15:42:41.124Z,43.41
2023-04-30T15:45:30.550Z,43.68
2023-04-30T15:48:19.465Z,44.03
2023-04-30T15:51:09.008Z,43.91
2023-04-30T15:53:58.046Z,44.05
2023-04-30T15:56:47.887Z,44.87
2023-04-30T15:59:36.773Z,45.30
2023-04-30T16:02:25.705Z,45.41
2023-04-30T16:05:15.182Z,45.62
2023-04-30T16:08:04.706Z,45.55
2023-04-30T16:10:54.263Z,45.72
2023-04-30T16:13:43.220Z,45.65
2023-04-30T16:16:33.921Z,44.87
2023-04-30T16:19:23.038Z,45.00
2023-04-30T16:22:13.166Z,44.64
2023-04-30T16:25:01.950Z,45.10
2023-04-30T16:27:53.191Z,44.79
2023-04-30T16:30:44.270Z,44.86
2023-04-30T16:33:32.879Z,44.54
2023-04-30T16:36:23.397Z,45.46
2023-04-30T16:39:17.312Z,45.91
2023-04-30T16:42:05.959Z,45.86
2023-04-30T16:45:34.014Z,46.03
2023-04-30T16:48:23.695Z,45.89
2023-04-30T16:51:20.178Z,45.50
2023-04-30T16:54:09.348Z,45.18
2023-04-30T16:56:58.574Z,45.33
2023-04-30T16:59:50.677Z,44.92
2023-04-30T17:02:41.158Z,45.18
2023-04-30T17:05:34.666Z,45.30
2023-04-30T17:08:23.682Z,45.73
2023-04-30T17:11:12.710Z,45.91
2023-04-30T17:14:01.554Z,46.17
2023-04-30T17:16:50.347Z,46.14
2023-04-30T17:19:41.625Z,46.17
2023-04-30T17:22:30.474Z,46.00
2023-04-30T17:25:19.759Z,46.24
2023-04-30T17:28:08.535Z,46.50
2023-04-30T17:30:58.052Z,46.60
2023-04-30T17:33:47.055Z,47.01
2023-04-30T17:36:35.952Z,47.31
2023-04-30T17:39:25.321Z,47.29
2023-04-30T17:42:14.294Z,47.41
2023-04-30T17:45:06.589Z,47.55
2023-04-30T17:47:55.388Z,47.78
2023-04-30T17:50:45.053Z,48.17
2023-04-30T17:53:33.865Z,48.62
2023-04-30T17:56:26.286Z,48.38
2023-04-30T17:59:14.967Z,48.79
2023-04-30T18:02:05.647Z,48.99
2023-04-30T18:04:54.428Z,49.60
2023-04-30T18:07:43.210Z,50.24
2023-04-30T18:10:32.031Z,51.18
2023-04-30T18:13:21.047Z,51.88
2023-04-30T18:16:09.775Z,52.23
2023-04-30T18:18:59.832Z,52.58
2023-04-30T18:21:48.897Z,53.17
2023-04-30T18:24:38.599Z,53.55
2023-04-30T18:27:27.807Z,53.78
2023-04-30T18:30:16.640Z,53.92
2023-04-30T18:33:06.623Z,54.32
2023-04-30T18:35:57.203Z,54.61
2023-04-30T18:38:46.490Z,54.84
2023-04-30T18:41:35.395Z,55.00
2023-04-30T18:44:34.516Z,55.40
2023-04-30T18:47:23.834Z,55.77
2023-04-30T18:50:17.070Z,56.26
2023-04-30T18:53:07.263Z,56.55
2023-04-30T18:55:59.306Z,56.93
2023-04-30T18:58:48.279Z,57.33
2023-04-30T19:01:37.021Z,57.35
2023-04-30T19:04:27.058Z,57.47
2023-04-30T19:07:16.314Z,57.41
2023-04-30T19:10:07.802Z,57.51
2023-04-30T19:12:57.478Z,58.09
2023-04-30T19:15:48.708Z,58.57
2023-04-30T19:18:40.539Z,58.61
2023-04-30T19:21:30.759Z,59.12
2023-04-30T19:24:19.582Z,59.66
2023-04-30T19:27:08.812Z,59.73
2023-04-30T19:29:58.052Z,59.89
2023-04-30T19:32:47.097Z,60.08
2023-04-30T19:35:38.659Z,60.28
2023-04-30T19:38:27.294Z,60.31
2023-04-30T19:41:17.017Z,60.33
2023-04-30T19:44:07.858Z,60.50
2023-04-30T19:46:56.678Z,60.60
2023-04-30T19:49:47.864Z,60.78
2023-04-30T19:52:36.858Z,60.96
2023-04-30T19:55:28.613Z,61.14
2023-04-30T19:58:17.623Z,61.30
2023-04-30T20:01:06.577Z,61.14
2023-04-30T20:03:55.559Z,61.50
2023-04-30T20:06:45.674Z,61.78
2023-04-30T20:09:34.583Z,61.99
2023-04-30T20:12:23.203Z,62.23
2023-04-30T20:15:12.036Z,62.42
2023-04-30T20:18:01.485Z,62.68
2023-04-30T20:20:52.414Z,62.71
2023-04-30T20:23:41.392Z,62.86
2023-04-30T20:26:30.240Z,62.96
2023-04-30T20:29:20.839Z,63.19
2023-04-30T20:32:09.978Z,63.24
2023-04-30T20:34:59.160Z,63.32
2023-04-30T20:37:50.330Z,63.40
2023-04-30T20:40:40.598Z,63.45
2023-04-30T20:43:29.732Z,63.79
2023-04-30T20:46:18.533Z,63.95
2023-04-30T20:49:07.552Z,64.13
2023-04-30T20:51:56.564Z,64.14
2023-04-30T20:54:45.916Z,64.33
2023-04-30T20:57:34.996Z,64.40
2023-04-30T21:00:25.559Z,64.41
2023-04-30T21:03:14.924Z,64.43
2023-04-30T21:06:04.118Z,64.69
2023-04-30T21:08:53.112Z,64.86
2023-04-30T21:11:42.119Z,64.97
2023-04-30T21:14:32.016Z,65.12
2023-04-30T21:17:20.869Z,65.13
2023-04-30T21:20:10.135Z,65.22
2023-04-30T21:22:58.949Z,65.26
2023-04-30T21:25:47.928Z,65.53
2023-04-30T21:28:36.688Z,65.51
2023-04-30T21:31:25.572Z,65.47
2023-04-30T21:34:14.622Z,65.72
2023-04-30T21:37:03.508Z,65.89
2023-04-30T21:39:52.535Z,66.00
2023-04-30T21:42:41.495Z,66.03
2023-04-30T21:45:32.470Z,66.21
2023-04-30T21:48:21.373Z,66.29
2023-04-30T21:51:15.009Z,66.40
2023-04-30T21:54:04.103Z,66.57
2023-04-30T21:56:52.901Z,66.51
2023-04-30T21:59:42.325Z,66.66
2023-04-30T22:02:32.802Z,66.76
2023-04-30T22:05:21.732Z,66.90
2023-04-30T22:08:11.043Z,66.85
2023-04-30T22:11:00.728Z,66.75
2023-04-30T22:13:49.759Z,66.88
2023-04-30T22:16:38.655Z,67.08
2023-04-30T22:19:27.614Z,67.30
2023-04-30T22:22:16.766Z,67.41
2023-04-30T22:25:05.998Z,67.56
2023-04-30T22:27:54.626Z,67.68
2023-04-30T22:30:43.590Z,67.59
2023-04-30T22:33:36.771Z,67.65
2023-04-30T22:36:25.698Z,67.63
2023-04-30T22:39:14.549Z,67.75
2023-04-30T22:42:04.630Z,67.81
2023-04-30T22:44:54.813Z,67.95
2023-04-30T22:47:45.857Z,68.09
2023-04-30T22:50:34.766Z,68.29
2023-04-30T22:53:23.953Z,68.15
2023-04-30T22:56:13.113Z,68.30
2023-04-30T22:59:01.990Z,68.48
2023-04-30T23:01:50.721Z,68.70
2023-04-30T23:04:39.662Z,68.85
2023-04-30T23:07:28.347Z,68.99
2023-04-30T23:10:17.422Z,69.13
2023-04-30T23:13:06.087Z,68.80
2023-04-30T23:15:59.112Z,68.98
2023-04-30T23:18:48.979Z,69.01
2023-04-30T23:21:37.791Z,69.36
2023-04-30T23:24:26.979Z,69.45
2023-04-30T23:27:17.402Z,69.35
2023-04-30T23:30:07.079Z,69.31
2023-04-30T23:32:56.609Z,69.36
2023-04-30T23:35:46.128Z,69.39
2023-04-30T23:38:34.994Z,69.37
2023-04-30T23:41:23.684Z,69.18
2023-04-30T23:44:13.430Z,69.37
2023-04-30T23:47:02.232Z,69.41
2023-04-30T23:49:51.173Z,69.44
2023-04-30T23:52:40.980Z,69.37
2023-04-30T23:55:29.608Z,69.75
2023-04-30T23:58:18.283Z,69.58
